sensor_id;sensor_type;location;lat;lon;timestamp;temperature;humidity
69418;DHT22;56610;48.872;2.400;2023-09-30T00:01:09;20.20;99.90
69418;DHT22;56610;48.872;2.400;2023-09-30T00:03:35;20.20;99.90
69418;DHT22;56610;48.872;2.400;2023-09-30T00:06:01;20.20;99.90
69418;DHT22;56610;48.872;2.400;2023-09-30T00:08:27;20.20;99.90
69418;DHT22;56610;48.872;2.400;2023-09-30T00:10:52;20.30;99.90
69418;DHT22;56610;48.872;2.400;2023-09-30T00:13:19;20.30;99.90
69418;DHT22;56610;48.872;2.400;2023-09-30T00:15:45;20.30;99.90
69418;DHT22;56610;48.872;2.400;2023-09-30T00:18:10;20.20;99.90
69418;DHT22;56610;48.872;2.400;2023-09-30T00:20:36;20.10;99.90
69418;DHT22;56610;48.872;2.400;2023-09-30T00:23:02;20.20;99.90
69418;DHT22;56610;48.872;2.400;2023-09-30T00:25:27;20.00;99.90
69418;DHT22;56610;48.872;2.400;2023-09-30T00:27:53;20.10;99.90
69418;DHT22;56610;48.872;2.400;2023-09-30T00:30:18;20.10;99.90
69418;DHT22;56610;48.872;2.400;2023-09-30T00:32:44;20.10;99.90
69418;DHT22;56610;48.872;2.400;2023-09-30T00:35:10;20.00;99.90
69418;DHT22;56610;48.872;2.400;2023-09-30T00:37:40;20.00;99.90
69418;DHT22;56610;48.872;2.400;2023-09-30T00:40:07;19.90;99.90
69418;DHT22;56610;48.872;2.400;2023-09-30T00:42:37;20.00;99.90
69418;DHT22;56610;48.872;2.400;2023-09-30T00:45:04;19.90;99.90
69418;DHT22;56610;48.872;2.400;2023-09-30T00:47:30;19.90;99.90
69418;DHT22;56610;48.872;2.400;2023-09-30T00:49:57;19.90;99.90
69418;DHT22;56610;48.872;2.400;2023-09-30T00:52:23;19.90;99.90
69418;DHT22;56610;48.872;2.400;2023-09-30T00:54:49;19.80;99.90
69418;DHT22;56610;48.872;2.400;2023-09-30T00:57:16;19.80;99.90
69418;DHT22;56610;48.872;2.400;2023-09-30T00:59:43;19.80;99.90
69418;DHT22;56610;48.872;2.400;2023-09-30T01:02:09;19.80;99.90
69418;DHT22;56610;48.872;2.400;2023-09-30T01:04:35;19.80;99.90
69418;DHT22;56610;48.872;2.400;2023-09-30T01:07:02;19.70;99.90
69418;DHT22;56610;48.872;2.400;2023-09-30T01:09:27;19.80;99.90
69418;DHT22;56610;48.872;2.400;2023-09-30T01:11:53;19.80;99.90
69418;DHT22;56610;48.872;2.400;2023-09-30T01:14:30;19.80;99.90
69418;DHT22;56610;48.872;2.400;2023-09-30T01:16:56;19.60;99.90
69418;DHT22;56610;48.872;2.400;2023-09-30T01:19:22;19.60;99.90
69418;DHT22;56610;48.872;2.400;2023-09-30T01:21:54;19.60;99.90
69418;DHT22;56610;48.872;2.400;2023-09-30T01:24:22;19.70;99.90
69418;DHT22;56610;48.872;2.400;2023-09-30T01:26:47;19.60;99.90
69418;DHT22;56610;48.872;2.400;2023-09-30T01:29:13;19.70;99.90
69418;DHT22;56610;48.872;2.400;2023-09-30T01:31:39;19.70;99.90
69418;DHT22;56610;48.872;2.400;2023-09-30T01:34:05;19.70;99.90
69418;DHT22;56610;48.872;2.400;2023-09-30T01:36:31;19.70;99.90
69418;DHT22;56610;48.872;2.400;2023-09-30T01:38:57;19.60;99.90
69418;DHT22;56610;48.872;2.400;2023-09-30T01:41:23;19.70;99.90
69418;DHT22;56610;48.872;2.400;2023-09-30T01:43:49;19.60;99.90
69418;DHT22;56610;48.872;2.400;2023-09-30T01:46:14;19.70;99.90
69418;DHT22;56610;48.872;2.400;2023-09-30T01:48:40;19.70;99.90
69418;DHT22;56610;48.872;2.400;2023-09-30T01:51:06;19.70;99.90
69418;DHT22;56610;48.872;2.400;2023-09-30T01:53:32;19.70;99.90
69418;DHT22;56610;48.872;2.400;2023-09-30T01:55:58;19.70;99.90
69418;DHT22;56610;48.872;2.400;2023-09-30T01:58:23;19.60;99.90
69418;DHT22;56610;48.872;2.400;2023-09-30T02:00:51;19.70;99.90
69418;DHT22;56610;48.872;2.400;2023-09-30T02:03:17;19.60;99.90
69418;DHT22;56610;48.872;2.400;2023-09-30T02:05:43;19.70;99.90
69418;DHT22;56610;48.872;2.400;2023-09-30T02:08:08;19.60;99.90
69418;DHT22;56610;48.872;2.400;2023-09-30T02:10:35;19.60;99.90
69418;DHT22;56610;48.872;2.400;2023-09-30T02:13:01;19.60;99.90
69418;DHT22;56610;48.872;2.400;2023-09-30T02:15:27;19.60;99.90
69418;DHT22;56610;48.872;2.400;2023-09-30T02:17:52;19.50;99.90
69418;DHT22;56610;48.872;2.400;2023-09-30T02:20:18;19.50;99.90
69418;DHT22;56610;48.872;2.400;2023-09-30T02:22:51;19.40;99.90
69418;DHT22;56610;48.872;2.400;2023-09-30T02:25:17;19.40;99.90
69418;DHT22;56610;48.872;2.400;2023-09-30T02:27:43;19.40;99.90
69418;DHT22;56610;48.872;2.400;2023-09-30T02:30:11;19.40;99.90
69418;DHT22;56610;48.872;2.400;2023-09-30T02:32:40;19.40;99.90
69418;DHT22;56610;48.872;2.400;2023-09-30T02:35:06;19.40;99.90
69418;DHT22;56610;48.872;2.400;2023-09-30T02:37:35;19.40;99.90
69418;DHT22;56610;48.872;2.400;2023-09-30T02:40:05;19.30;99.90
69418;DHT22;56610;48.872;2.400;2023-09-30T02:42:36;19.40;99.90
69418;DHT22;56610;48.872;2.400;2023-09-30T02:45:03;19.40;99.90
69418;DHT22;56610;48.872;2.400;2023-09-30T02:47:29;19.40;99.90
69418;DHT22;56610;48.872;2.400;2023-09-30T02:49:57;19.40;99.90
69418;DHT22;56610;48.872;2.400;2023-09-30T02:52:23;19.40;99.90
69418;DHT22;56610;48.872;2.400;2023-09-30T02:54:49;19.40;99.90
69418;DHT22;56610;48.872;2.400;2023-09-30T02:57:15;19.50;99.90
69418;DHT22;56610;48.872;2.400;2023-09-30T02:59:41;19.40;99.90
69418;DHT22;56610;48.872;2.400;2023-09-30T03:05:17;19.20;99.90
69418;DHT22;56610;48.872;2.400;2023-09-30T03:07:42;19.20;99.90
69418;DHT22;56610;48.872;2.400;2023-09-30T03:10:09;19.20;99.90
69418;DHT22;56610;48.872;2.400;2023-09-30T03:12:35;19.30;99.90
69418;DHT22;56610;48.872;2.400;2023-09-30T03:15:01;19.30;99.90
69418;DHT22;56610;48.872;2.400;2023-09-30T03:17:30;19.30;99.90
69418;DHT22;56610;48.872;2.400;2023-09-30T03:19:56;19.30;99.90
69418;DHT22;56610;48.872;2.400;2023-09-30T03:22:22;19.30;99.90
69418;DHT22;56610;48.872;2.400;2023-09-30T03:24:48;19.30;99.90
69418;DHT22;56610;48.872;2.400;2023-09-30T03:27:14;19.40;99.90
69418;DHT22;56610;48.872;2.400;2023-09-30T03:29:41;19.20;99.90
69418;DHT22;56610;48.872;2.400;2023-09-30T03:32:06;19.10;99.90
69418;DHT22;56610;48.872;2.400;2023-09-30T03:34:33;19.10;99.90
69418;DHT22;56610;48.872;2.400;2023-09-30T03:37:02;19.10;99.90
69418;DHT22;56610;48.872;2.400;2023-09-30T03:39:27;19.00;99.90
69418;DHT22;56610;48.872;2.400;2023-09-30T03:41:56;19.10;99.90
69418;DHT22;56610;48.872;2.400;2023-09-30T03:44:23;19.00;99.90
69418;DHT22;56610;48.872;2.400;2023-09-30T03:46:51;19.00;99.90
69418;DHT22;56610;48.872;2.400;2023-09-30T03:49:17;19.00;99.90
69418;DHT22;56610;48.872;2.400;2023-09-30T03:51:45;19.00;99.90
69418;DHT22;56610;48.872;2.400;2023-09-30T03:54:11;19.00;99.90
69418;DHT22;56610;48.872;2.400;2023-09-30T03:56:36;19.10;99.90
69418;DHT22;56610;48.872;2.400;2023-09-30T03:59:04;19.10;99.90
69418;DHT22;56610;48.872;2.400;2023-09-30T04:01:30;19.10;99.90
69418;DHT22;56610;48.872;2.400;2023-09-30T04:03:56;19.10;99.90
69418;DHT22;56610;48.872;2.400;2023-09-30T04:06:22;19.20;99.90
69418;DHT22;56610;48.872;2.400;2023-09-30T04:08:47;19.20;99.90
69418;DHT22;56610;48.872;2.400;2023-09-30T04:11:13;19.10;99.90
69418;DHT22;56610;48.872;2.400;2023-09-30T04:13:44;19.10;99.90
69418;DHT22;56610;48.872;2.400;2023-09-30T04:16:10;19.10;99.90
69418;DHT22;56610;48.872;2.400;2023-09-30T04:18:36;19.20;99.90
69418;DHT22;56610;48.872;2.400;2023-09-30T04:21:02;19.10;99.90
69418;DHT22;56610;48.872;2.400;2023-09-30T04:23:29;19.10;99.90
69418;DHT22;56610;48.872;2.400;2023-09-30T04:25:55;19.10;99.90
69418;DHT22;56610;48.872;2.400;2023-09-30T04:28:21;19.20;99.90
69418;DHT22;56610;48.872;2.400;2023-09-30T04:30:50;19.00;99.90
69418;DHT22;56610;48.872;2.400;2023-09-30T04:33:16;19.10;99.90
69418;DHT22;56610;48.872;2.400;2023-09-30T04:35:46;19.00;99.90
69418;DHT22;56610;48.872;2.400;2023-09-30T04:38:12;19.10;99.90
69418;DHT22;56610;48.872;2.400;2023-09-30T04:40:38;19.00;99.90
69418;DHT22;56610;48.872;2.400;2023-09-30T04:43:04;19.10;99.90
69418;DHT22;56610;48.872;2.400;2023-09-30T04:45:31;19.00;99.90
69418;DHT22;56610;48.872;2.400;2023-09-30T04:47:56;19.00;99.90
69418;DHT22;56610;48.872;2.400;2023-09-30T04:50:22;18.90;99.90
69418;DHT22;56610;48.872;2.400;2023-09-30T04:52:48;18.90;99.90
69418;DHT22;56610;48.872;2.400;2023-09-30T04:55:15;18.90;99.90
69418;DHT22;56610;48.872;2.400;2023-09-30T04:57:45;18.90;99.90
69418;DHT22;56610;48.872;2.400;2023-09-30T05:00:20;18.80;99.90
69418;DHT22;56610;48.872;2.400;2023-09-30T05:02:51;18.90;99.90
69418;DHT22;56610;48.872;2.400;2023-09-30T05:05:17;18.90;99.90
69418;DHT22;56610;48.872;2.400;2023-09-30T05:07:44;18.90;99.90
69418;DHT22;56610;48.872;2.400;2023-09-30T05:10:11;18.90;99.90
69418;DHT22;56610;48.872;2.400;2023-09-30T05:12:44;18.90;99.90
69418;DHT22;56610;48.872;2.400;2023-09-30T05:15:13;18.90;99.90
69418;DHT22;56610;48.872;2.400;2023-09-30T05:17:41;19.00;99.90
69418;DHT22;56610;48.872;2.400;2023-09-30T05:20:09;19.00;99.90
69418;DHT22;56610;48.872;2.400;2023-09-30T05:22:41;19.10;99.90
69418;DHT22;56610;48.872;2.400;2023-09-30T05:25:11;19.00;99.90
69418;DHT22;56610;48.872;2.400;2023-09-30T05:27:36;19.00;99.90
69418;DHT22;56610;48.872;2.400;2023-09-30T05:30:03;18.90;99.90
69418;DHT22;56610;48.872;2.400;2023-09-30T05:32:29;18.90;99.90
69418;DHT22;56610;48.872;2.400;2023-09-30T05:34:56;18.90;99.90
69418;DHT22;56610;48.872;2.400;2023-09-30T05:37:23;18.90;99.90
69418;DHT22;56610;48.872;2.400;2023-09-30T05:39:49;18.80;99.90
69418;DHT22;56610;48.872;2.400;2023-09-30T05:42:15;18.80;99.90
69418;DHT22;56610;48.872;2.400;2023-09-30T05:44:41;18.80;99.90
69418;DHT22;56610;48.872;2.400;2023-09-30T05:47:08;18.80;99.90
69418;DHT22;56610;48.872;2.400;2023-09-30T05:49:34;18.80;99.90
69418;DHT22;56610;48.872;2.400;2023-09-30T05:52:02;18.70;99.90
69418;DHT22;56610;48.872;2.400;2023-09-30T05:54:27;18.70;99.90
69418;DHT22;56610;48.872;2.400;2023-09-30T05:56:54;18.60;99.90
69418;DHT22;56610;48.872;2.400;2023-09-30T05:59:20;18.70;99.90
69418;DHT22;56610;48.872;2.400;2023-09-30T06:01:46;18.70;99.90
69418;DHT22;56610;48.872;2.400;2023-09-30T06:04:12;18.70;99.90
69418;DHT22;56610;48.872;2.400;2023-09-30T06:06:37;18.70;99.90
69418;DHT22;56610;48.872;2.400;2023-09-30T06:09:04;18.80;99.90
69418;DHT22;56610;48.872;2.400;2023-09-30T06:11:33;18.80;99.90
69418;DHT22;56610;48.872;2.400;2023-09-30T06:13:59;18.80;99.90
69418;DHT22;56610;48.872;2.400;2023-09-30T06:16:26;18.80;99.90
69418;DHT22;56610;48.872;2.400;2023-09-30T06:18:53;18.90;99.90
69418;DHT22;56610;48.872;2.400;2023-09-30T06:21:21;18.80;99.90
69418;DHT22;56610;48.872;2.400;2023-09-30T06:23:48;18.90;99.90
69418;DHT22;56610;48.872;2.400;2023-09-30T06:26:14;18.80;99.90
69418;DHT22;56610;48.872;2.400;2023-09-30T06:28:42;18.90;99.90
69418;DHT22;56610;48.872;2.400;2023-09-30T06:31:08;18.90;99.90
69418;DHT22;56610;48.872;2.400;2023-09-30T06:33:35;19.00;99.90
69418;DHT22;56610;48.872;2.400;2023-09-30T06:36:01;18.80;99.90
69418;DHT22;56610;48.872;2.400;2023-09-30T06:38:27;18.90;99.90
69418;DHT22;56610;48.872;2.400;2023-09-30T06:40:53;18.90;99.90
69418;DHT22;56610;48.872;2.400;2023-09-30T06:43:19;18.80;99.90
69418;DHT22;56610;48.872;2.400;2023-09-30T06:45:45;18.80;99.90
69418;DHT22;56610;48.872;2.400;2023-09-30T06:48:12;18.70;99.90
69418;DHT22;56610;48.872;2.400;2023-09-30T06:50:49;18.70;99.90
69418;DHT22;56610;48.872;2.400;2023-09-30T06:53:16;18.70;99.90
69418;DHT22;56610;48.872;2.400;2023-09-30T06:55:42;18.80;99.90
69418;DHT22;56610;48.872;2.400;2023-09-30T06:58:11;18.90;99.90
69418;DHT22;56610;48.872;2.400;2023-09-30T07:00:38;18.90;99.90
69418;DHT22;56610;48.872;2.400;2023-09-30T07:03:04;19.00;99.90
69418;DHT22;56610;48.872;2.400;2023-09-30T07:05:30;19.10;99.90
69418;DHT22;56610;48.872;2.400;2023-09-30T07:07:55;19.20;99.90
69418;DHT22;56610;48.872;2.400;2023-09-30T07:10:21;19.20;99.90
69418;DHT22;56610;48.872;2.400;2023-09-30T07:12:47;19.20;99.90
69418;DHT22;56610;48.872;2.400;2023-09-30T07:15:13;19.10;99.90
69418;DHT22;56610;48.872;2.400;2023-09-30T07:17:39;19.10;99.90
69418;DHT22;56610;48.872;2.400;2023-09-30T07:20:06;19.20;99.90
69418;DHT22;56610;48.872;2.400;2023-09-30T07:22:33;19.20;99.90
69418;DHT22;56610;48.872;2.400;2023-09-30T07:24:59;19.30;99.90
69418;DHT22;56610;48.872;2.400;2023-09-30T07:27:25;19.40;99.90
69418;DHT22;56610;48.872;2.400;2023-09-30T07:29:50;19.50;99.90
69418;DHT22;56610;48.872;2.400;2023-09-30T07:32:16;19.50;99.90
69418;DHT22;56610;48.872;2.400;2023-09-30T07:34:42;19.60;99.90
69418;DHT22;56610;48.872;2.400;2023-09-30T07:37:08;19.70;99.90
69418;DHT22;56610;48.872;2.400;2023-09-30T07:39:34;19.70;99.90
69418;DHT22;56610;48.872;2.400;2023-09-30T07:42:00;19.90;99.90
69418;DHT22;56610;48.872;2.400;2023-09-30T07:44:26;19.90;99.90
69418;DHT22;56610;48.872;2.400;2023-09-30T07:46:52;19.80;99.90
69418;DHT22;56610;48.872;2.400;2023-09-30T07:49:17;19.90;99.90
69418;DHT22;56610;48.872;2.400;2023-09-30T07:51:44;20.10;99.90
69418;DHT22;56610;48.872;2.400;2023-09-30T07:54:11;20.30;99.90
69418;DHT22;56610;48.872;2.400;2023-09-30T07:56:37;20.40;99.90
69418;DHT22;56610;48.872;2.400;2023-09-30T07:59:03;20.40;99.90
69418;DHT22;56610;48.872;2.400;2023-09-30T08:01:28;20.50;99.90
69418;DHT22;56610;48.872;2.400;2023-09-30T08:03:55;20.50;99.90
69418;DHT22;56610;48.872;2.400;2023-09-30T08:06:21;20.40;99.90
69418;DHT22;56610;48.872;2.400;2023-09-30T08:08:47;20.20;99.90
69418;DHT22;56610;48.872;2.400;2023-09-30T08:11:12;20.10;99.90
69418;DHT22;56610;48.872;2.400;2023-09-30T08:13:38;20.00;99.90
69418;DHT22;56610;48.872;2.400;2023-09-30T08:16:04;20.10;99.90
69418;DHT22;56610;48.872;2.400;2023-09-30T08:18:30;20.00;99.90
69418;DHT22;56610;48.872;2.400;2023-09-30T08:20:55;20.10;99.90
69418;DHT22;56610;48.872;2.400;2023-09-30T08:23:21;20.00;99.90
69418;DHT22;56610;48.872;2.400;2023-09-30T08:25:47;20.00;99.90
69418;DHT22;56610;48.872;2.400;2023-09-30T08:28:12;19.90;99.90
69418;DHT22;56610;48.872;2.400;2023-09-30T08:30:38;20.00;99.90
69418;DHT22;56610;48.872;2.400;2023-09-30T08:33:04;20.00;99.90
69418;DHT22;56610;48.872;2.400;2023-09-30T08:35:35;20.10;99.90
69418;DHT22;56610;48.872;2.400;2023-09-30T08:38:00;20.20;99.90
69418;DHT22;56610;48.872;2.400;2023-09-30T08:40:27;20.30;99.90
69418;DHT22;56610;48.872;2.400;2023-09-30T08:42:53;20.40;99.90
69418;DHT22;56610;48.872;2.400;2023-09-30T08:45:19;20.40;99.90
69418;DHT22;56610;48.872;2.400;2023-09-30T08:47:45;20.50;99.90
69418;DHT22;56610;48.872;2.400;2023-09-30T08:50:16;20.50;99.90
69418;DHT22;56610;48.872;2.400;2023-09-30T08:52:43;20.60;99.90
69418;DHT22;56610;48.872;2.400;2023-09-30T08:55:10;20.60;99.90
69418;DHT22;56610;48.872;2.400;2023-09-30T08:57:42;20.70;99.90
69418;DHT22;56610;48.872;2.400;2023-09-30T09:00:10;20.90;99.90
69418;DHT22;56610;48.872;2.400;2023-09-30T09:02:39;21.10;99.90
69418;DHT22;56610;48.872;2.400;2023-09-30T09:05:08;21.20;99.90
69418;DHT22;56610;48.872;2.400;2023-09-30T09:07:35;21.30;99.90
69418;DHT22;56610;48.872;2.400;2023-09-30T09:10:07;21.20;99.90
69418;DHT22;56610;48.872;2.400;2023-09-30T09:12:35;21.30;99.90
69418;DHT22;56610;48.872;2.400;2023-09-30T09:15:01;21.20;99.90
69418;DHT22;56610;48.872;2.400;2023-09-30T09:17:44;21.20;99.90
69418;DHT22;56610;48.872;2.400;2023-09-30T09:20:11;21.10;99.90
69418;DHT22;56610;48.872;2.400;2023-09-30T09:22:42;21.20;99.90
69418;DHT22;56610;48.872;2.400;2023-09-30T09:25:08;21.20;99.90
69418;DHT22;56610;48.872;2.400;2023-09-30T09:27:34;21.40;99.90
69418;DHT22;56610;48.872;2.400;2023-09-30T09:30:27;21.50;99.90
69418;DHT22;56610;48.872;2.400;2023-09-30T09:35:23;21.60;99.90
69418;DHT22;56610;48.872;2.400;2023-09-30T09:38:00;21.60;99.90
69418;DHT22;56610;48.872;2.400;2023-09-30T09:40:28;21.70;99.90
69418;DHT22;56610;48.872;2.400;2023-09-30T09:42:55;21.70;99.90
69418;DHT22;56610;48.872;2.400;2023-09-30T09:45:22;21.80;99.90
69418;DHT22;56610;48.872;2.400;2023-09-30T09:47:48;22.00;99.90
69418;DHT22;56610;48.872;2.400;2023-09-30T09:50:14;22.10;99.90
69418;DHT22;56610;48.872;2.400;2023-09-30T09:52:41;22.20;99.90
69418;DHT22;56610;48.872;2.400;2023-09-30T09:55:11;22.40;99.90
69418;DHT22;56610;48.872;2.400;2023-09-30T09:57:37;22.40;99.90
69418;DHT22;56610;48.872;2.400;2023-09-30T10:00:04;22.40;99.90
69418;DHT22;56610;48.872;2.400;2023-09-30T10:02:42;22.50;99.90
69418;DHT22;56610;48.872;2.400;2023-09-30T10:05:08;22.60;99.90
69418;DHT22;56610;48.872;2.400;2023-09-30T10:07:40;22.80;99.90
69418;DHT22;56610;48.872;2.400;2023-09-30T10:10:13;22.80;99.90
69418;DHT22;56610;48.872;2.400;2023-09-30T10:12:39;22.80;99.90
69418;DHT22;56610;48.872;2.400;2023-09-30T10:18:03;22.70;99.90
69418;DHT22;56610;48.872;2.400;2023-09-30T10:20:34;22.60;99.90
69418;DHT22;56610;48.872;2.400;2023-09-30T10:25:45;22.70;99.90
69418;DHT22;56610;48.872;2.400;2023-09-30T10:31:08;23.00;99.90
69418;DHT22;56610;48.872;2.400;2023-09-30T10:33:34;23.10;99.90
69418;DHT22;56610;48.872;2.400;2023-09-30T10:36:00;23.20;99.90
69418;DHT22;56610;48.872;2.400;2023-09-30T10:41:00;23.30;99.90
69418;DHT22;56610;48.872;2.400;2023-09-30T10:46:01;23.30;99.90
69418;DHT22;56610;48.872;2.400;2023-09-30T10:51:20;23.50;99.90
69418;DHT22;56610;48.872;2.400;2023-09-30T10:53:53;23.50;99.90
69418;DHT22;56610;48.872;2.400;2023-09-30T10:56:23;23.50;99.90
69418;DHT22;56610;48.872;2.400;2023-09-30T10:58:51;23.60;99.90
69418;DHT22;56610;48.872;2.400;2023-09-30T11:01:23;23.70;99.90
69418;DHT22;56610;48.872;2.400;2023-09-30T11:03:50;23.80;99.90
69418;DHT22;56610;48.872;2.400;2023-09-30T11:06:22;23.90;99.90
69418;DHT22;56610;48.872;2.400;2023-09-30T11:08:53;23.90;99.90
69418;DHT22;56610;48.872;2.400;2023-09-30T11:11:19;24.10;99.90
69418;DHT22;56610;48.872;2.400;2023-09-30T11:13:45;24.20;99.90
69418;DHT22;56610;48.872;2.400;2023-09-30T11:16:11;24.30;99.90
69418;DHT22;56610;48.872;2.400;2023-09-30T11:18:36;24.50;99.90
69418;DHT22;56610;48.872;2.400;2023-09-30T11:21:05;24.60;99.90
69418;DHT22;56610;48.872;2.400;2023-09-30T11:23:32;24.70;99.90
69418;DHT22;56610;48.872;2.400;2023-09-30T11:25:58;24.90;99.90
69418;DHT22;56610;48.872;2.400;2023-09-30T11:28:24;25.00;99.90
69418;DHT22;56610;48.872;2.400;2023-09-30T11:30:58;25.20;99.90
69418;DHT22;56610;48.872;2.400;2023-09-30T11:33:25;25.30;99.90
69418;DHT22;56610;48.872;2.400;2023-09-30T11:36:05;25.30;99.90
69418;DHT22;56610;48.872;2.400;2023-09-30T11:38:32;25.20;99.90
69418;DHT22;56610;48.872;2.400;2023-09-30T11:41:02;25.10;99.90
69418;DHT22;56610;48.872;2.400;2023-09-30T11:43:30;25.20;99.90
69418;DHT22;56610;48.872;2.400;2023-09-30T11:46:05;25.10;99.90
69418;DHT22;56610;48.872;2.400;2023-09-30T11:48:31;25.10;99.90
69418;DHT22;56610;48.872;2.400;2023-09-30T11:50:59;25.10;99.90
69418;DHT22;56610;48.872;2.400;2023-09-30T11:53:32;25.20;99.90
69418;DHT22;56610;48.872;2.400;2023-09-30T11:55:59;25.30;99.90
69418;DHT22;56610;48.872;2.400;2023-09-30T11:58:26;25.40;99.90
69418;DHT22;56610;48.872;2.400;2023-09-30T12:00:57;25.60;99.90
69418;DHT22;56610;48.872;2.400;2023-09-30T12:03:23;25.90;99.90
69418;DHT22;56610;48.872;2.400;2023-09-30T12:05:49;26.30;99.90
69418;DHT22;56610;48.872;2.400;2023-09-30T12:08:14;26.60;99.90
69418;DHT22;56610;48.872;2.400;2023-09-30T12:10:41;27.00;99.90
69418;DHT22;56610;48.872;2.400;2023-09-30T12:13:07;27.20;99.90
69418;DHT22;56610;48.872;2.400;2023-09-30T12:15:33;27.40;99.60
69418;DHT22;56610;48.872;2.400;2023-09-30T12:17:58;27.70;99.40
69418;DHT22;56610;48.872;2.400;2023-09-30T12:20:24;27.80;99.20
69418;DHT22;56610;48.872;2.400;2023-09-30T12:22:50;28.10;99.10
69418;DHT22;56610;48.872;2.400;2023-09-30T12:25:18;28.50;98.60
69418;DHT22;56610;48.872;2.400;2023-09-30T12:27:47;28.60;98.70
69418;DHT22;56610;48.872;2.400;2023-09-30T12:30:13;28.80;98.10
69418;DHT22;56610;48.872;2.400;2023-09-30T12:32:39;29.10;97.30
69418;DHT22;56610;48.872;2.400;2023-09-30T12:35:05;29.30;97.30
69418;DHT22;56610;48.872;2.400;2023-09-30T12:37:31;29.60;97.30
69418;DHT22;56610;48.872;2.400;2023-09-30T12:39:57;29.50;96.70
69418;DHT22;56610;48.872;2.400;2023-09-30T12:42:23;29.60;96.80
69418;DHT22;56610;48.872;2.400;2023-09-30T12:44:50;29.50;97.10
69418;DHT22;56610;48.872;2.400;2023-09-30T12:47:15;29.70;96.90
69418;DHT22;56610;48.872;2.400;2023-09-30T12:49:41;29.80;96.60
69418;DHT22;56610;48.872;2.400;2023-09-30T12:52:07;30.20;96.10
69418;DHT22;56610;48.872;2.400;2023-09-30T12:54:32;30.20;96.10
69418;DHT22;56610;48.872;2.400;2023-09-30T12:56:59;30.00;96.30
69418;DHT22;56610;48.872;2.400;2023-09-30T12:59:25;30.00;95.80
69418;DHT22;56610;48.872;2.400;2023-09-30T13:01:51;30.10;96.00
69418;DHT22;56610;48.872;2.400;2023-09-30T13:04:17;30.30;95.60
69418;DHT22;56610;48.872;2.400;2023-09-30T13:06:44;30.30;95.50
69418;DHT22;56610;48.872;2.400;2023-09-30T13:09:13;30.40;95.50
69418;DHT22;56610;48.872;2.400;2023-09-30T13:11:38;30.20;95.20
69418;DHT22;56610;48.872;2.400;2023-09-30T13:14:04;30.20;95.60
69418;DHT22;56610;48.872;2.400;2023-09-30T13:16:30;30.10;95.70
69418;DHT22;56610;48.872;2.400;2023-09-30T13:18:56;30.10;95.10
69418;DHT22;56610;48.872;2.400;2023-09-30T13:21:22;30.20;95.00
69418;DHT22;56610;48.872;2.400;2023-09-30T13:23:47;30.20;95.10
69418;DHT22;56610;48.872;2.400;2023-09-30T13:26:13;30.20;95.40
69418;DHT22;56610;48.872;2.400;2023-09-30T13:28:38;30.20;95.10
69418;DHT22;56610;48.872;2.400;2023-09-30T13:31:05;29.90;95.00
69418;DHT22;56610;48.872;2.400;2023-09-30T13:33:30;29.90;95.20
69418;DHT22;56610;48.872;2.400;2023-09-30T13:35:56;29.80;94.80
69418;DHT22;56610;48.872;2.400;2023-09-30T13:38:22;29.20;95.20
69418;DHT22;56610;48.872;2.400;2023-09-30T13:40:47;29.10;95.90
69418;DHT22;56610;48.872;2.400;2023-09-30T13:43:13;28.90;96.30
69418;DHT22;56610;48.872;2.400;2023-09-30T13:45:38;28.80;96.20
69418;DHT22;56610;48.872;2.400;2023-09-30T13:48:04;28.80;96.00
69418;DHT22;56610;48.872;2.400;2023-09-30T13:50:30;29.00;96.00
69418;DHT22;56610;48.872;2.400;2023-09-30T13:52:55;28.80;95.80
69418;DHT22;56610;48.872;2.400;2023-09-30T13:55:21;28.60;96.50
69418;DHT22;56610;48.872;2.400;2023-09-30T13:57:47;28.60;96.30
69418;DHT22;56610;48.872;2.400;2023-09-30T14:00:14;28.40;96.20
69418;DHT22;56610;48.872;2.400;2023-09-30T14:02:42;27.70;96.70
69418;DHT22;56610;48.872;2.400;2023-09-30T14:05:08;27.50;97.30
69418;DHT22;56610;48.872;2.400;2023-09-30T14:07:35;27.60;97.40
69418;DHT22;56610;48.872;2.400;2023-09-30T14:10:01;27.90;97.30
69418;DHT22;56610;48.872;2.400;2023-09-30T14:12:27;28.20;97.30
69418;DHT22;56610;48.872;2.400;2023-09-30T14:14:53;28.40;97.00
69418;DHT22;56610;48.872;2.400;2023-09-30T14:17:18;28.70;96.30
69418;DHT22;56610;48.872;2.400;2023-09-30T14:19:44;28.70;96.50
69418;DHT22;56610;48.872;2.400;2023-09-30T14:22:09;28.70;96.10
69418;DHT22;56610;48.872;2.400;2023-09-30T14:24:35;28.70;95.90
69418;DHT22;56610;48.872;2.400;2023-09-30T14:27:04;28.60;96.70
69418;DHT22;56610;48.872;2.400;2023-09-30T14:29:30;28.60;97.00
69418;DHT22;56610;48.872;2.400;2023-09-30T14:31:56;28.60;96.60
69418;DHT22;56610;48.872;2.400;2023-09-30T14:34:23;28.70;96.60
69418;DHT22;56610;48.872;2.400;2023-09-30T14:36:49;28.60;96.70
69418;DHT22;56610;48.872;2.400;2023-09-30T14:39:15;28.40;96.90
69418;DHT22;56610;48.872;2.400;2023-09-30T14:41:44;28.30;96.70
69418;DHT22;56610;48.872;2.400;2023-09-30T14:44:11;28.20;96.70
69418;DHT22;56610;48.872;2.400;2023-09-30T14:46:38;28.10;96.60
69418;DHT22;56610;48.872;2.400;2023-09-30T14:49:04;28.00;97.00
69418;DHT22;56610;48.872;2.400;2023-09-30T14:51:32;28.00;97.30
69418;DHT22;56610;48.872;2.400;2023-09-30T14:53:57;27.90;97.40
69418;DHT22;56610;48.872;2.400;2023-09-30T14:56:23;27.80;97.70
69418;DHT22;56610;48.872;2.400;2023-09-30T14:58:49;27.50;97.70
69418;DHT22;56610;48.872;2.400;2023-09-30T15:01:14;27.50;98.00
69418;DHT22;56610;48.872;2.400;2023-09-30T15:03:40;27.20;98.50
69418;DHT22;56610;48.872;2.400;2023-09-30T15:06:06;27.10;98.70
69418;DHT22;56610;48.872;2.400;2023-09-30T15:08:33;27.20;98.70
69418;DHT22;56610;48.872;2.400;2023-09-30T15:10:59;27.20;98.60
69418;DHT22;56610;48.872;2.400;2023-09-30T15:13:25;27.30;98.60
69418;DHT22;56610;48.872;2.400;2023-09-30T15:15:51;27.40;98.20
69418;DHT22;56610;48.872;2.400;2023-09-30T15:18:17;27.30;98.50
69418;DHT22;56610;48.872;2.400;2023-09-30T15:20:42;27.20;98.50
69418;DHT22;56610;48.872;2.400;2023-09-30T15:23:10;27.20;98.60
69418;DHT22;56610;48.872;2.400;2023-09-30T15:25:42;27.10;98.70
69418;DHT22;56610;48.872;2.400;2023-09-30T15:28:09;27.10;99.00
69418;DHT22;56610;48.872;2.400;2023-09-30T15:30:35;27.00;99.00
69418;DHT22;56610;48.872;2.400;2023-09-30T15:33:01;26.90;99.10
69418;DHT22;56610;48.872;2.400;2023-09-30T15:35:28;26.90;99.10
69418;DHT22;56610;48.872;2.400;2023-09-30T15:37:53;26.90;99.10
69418;DHT22;56610;48.872;2.400;2023-09-30T15:40:19;26.90;98.80
69418;DHT22;56610;48.872;2.400;2023-09-30T15:42:44;26.90;98.50
69418;DHT22;56610;48.872;2.400;2023-09-30T15:45:11;26.80;98.50
69418;DHT22;56610;48.872;2.400;2023-09-30T15:47:38;26.70;98.80
69418;DHT22;56610;48.872;2.400;2023-09-30T15:50:05;26.60;98.70